sensor_id;sensor_type;location;lat;lon;timestamp;P1;durP1;ratioP1;P2;durP2;ratioP2
58260;SDS011;44058;52.898;6.502;2022-12-07T13:25:29;1.65;;;0.40;;
58260;SDS011;44058;52.898;6.502;2022-12-07T13:28:19;1.55;;;0.20;;
58260;SDS011;44058;52.898;6.502;2022-12-07T13:33:23;1.23;;;0.20;;
58260;SDS011;44058;52.898;6.502;2022-12-07T13:35:50;2.78;;;0.52;;
58260;SDS011;44058;52.898;6.502;2022-12-07T13:38:23;1.15;;;0.30;;
58260;SDS011;44058;52.898;6.502;2022-12-07T13:43:50;1.17;;;0.35;;
58260;SDS011;44058;52.898;6.502;2022-12-07T13:46:17;0.63;;;0.20;;
58260;SDS011;44058;52.898;6.502;2022-12-07T13:48:44;2.58;;;0.60;;
58260;SDS011;44058;52.898;6.502;2022-12-07T13:51:18;1.05;;;0.63;;
58260;SDS011;44058;52.898;6.502;2022-12-07T13:53:52;2.58;;;0.60;;
58260;SDS011;44058;52.898;6.502;2022-12-07T13:56:21;3.33;;;0.88;;
58260;SDS011;44058;52.898;6.502;2022-12-07T13:58:47;2.17;;;1.03;;
58260;SDS011;44058;52.898;6.502;2022-12-07T14:01:13;3.67;;;1.35;;
58260;SDS011;44058;52.898;6.502;2022-12-07T14:03:40;3.08;;;1.02;;
58260;SDS011;44058;52.898;6.502;2022-12-07T14:06:11;1.98;;;0.70;;
58260;SDS011;44058;52.898;6.502;2022-12-07T14:08:39;3.63;;;0.90;;
58260;SDS011;44058;52.898;6.502;2022-12-07T14:11:05;1.50;;;0.85;;
58260;SDS011;44058;52.898;6.502;2022-12-07T14:15:59;3.15;;;0.50;;
58260;SDS011;44058;52.898;6.502;2022-12-07T14:21:02;3.65;;;0.60;;
58260;SDS011;44058;52.898;6.502;2022-12-07T14:23:29;3.90;;;1.00;;
58260;SDS011;44058;52.898;6.502;2022-12-07T14:26:04;4.47;;;0.75;;
58260;SDS011;44058;52.898;6.502;2022-12-07T14:28:31;3.60;;;0.63;;
58260;SDS011;44058;52.898;6.502;2022-12-07T14:30:58;1.35;;;0.57;;
58260;SDS011;44058;52.898;6.502;2022-12-07T14:33:29;2.42;;;0.50;;
58260;SDS011;44058;52.898;6.502;2022-12-07T14:35:56;4.38;;;0.70;;
58260;SDS011;44058;52.898;6.502;2022-12-07T14:38:23;3.95;;;0.70;;
58260;SDS011;44058;52.898;6.502;2022-12-07T14:40:50;2.08;;;0.60;;
58260;SDS011;44058;52.898;6.502;2022-12-07T14:43:16;4.13;;;0.70;;
58260;SDS011;44058;52.898;6.502;2022-12-07T14:45:43;4.10;;;0.40;;
58260;SDS011;44058;52.898;6.502;2022-12-07T14:48:12;3.65;;;0.70;;
58260;SDS011;44058;52.898;6.502;2022-12-07T14:50:46;2.30;;;0.50;;
58260;SDS011;44058;52.898;6.502;2022-12-07T14:53:15;1.80;;;0.68;;
58260;SDS011;44058;52.898;6.502;2022-12-07T14:55:42;3.08;;;0.65;;
58260;SDS011;44058;52.898;6.502;2022-12-07T14:58:12;2.25;;;0.63;;
58260;SDS011;44058;52.898;6.502;2022-12-07T15:00:39;2.33;;;0.63;;
58260;SDS011;44058;52.898;6.502;2022-12-07T15:03:05;2.72;;;0.73;;
58260;SDS011;44058;52.898;6.502;2022-12-07T15:05:31;3.00;;;0.70;;
58260;SDS011;44058;52.898;6.502;2022-12-07T15:07:58;1.73;;;0.63;;
58260;SDS011;44058;52.898;6.502;2022-12-07T15:10:25;3.40;;;0.63;;
58260;SDS011;44058;52.898;6.502;2022-12-07T15:12:57;4.63;;;1.10;;
58260;SDS011;44058;52.898;6.502;2022-12-07T15:15:42;3.30;;;0.95;;
58260;SDS011;44058;52.898;6.502;2022-12-07T15:18:08;3.60;;;0.70;;
58260;SDS011;44058;52.898;6.502;2022-12-07T15:20:34;9.70;;;1.33;;
58260;SDS011;44058;52.898;6.502;2022-12-07T15:23:00;6.07;;;0.93;;
58260;SDS011;44058;52.898;6.502;2022-12-07T15:25:27;7.90;;;0.93;;
58260;SDS011;44058;52.898;6.502;2022-12-07T15:27:53;2.97;;;0.88;;
58260;SDS011;44058;52.898;6.502;2022-12-07T15:30:19;6.38;;;0.75;;
58260;SDS011;44058;52.898;6.502;2022-12-07T15:32:48;5.10;;;0.70;;
58260;SDS011;44058;52.898;6.502;2022-12-07T15:35:15;3.92;;;0.90;;
58260;SDS011;44058;52.898;6.502;2022-12-07T15:37:41;3.38;;;0.80;;
58260;SDS011;44058;52.898;6.502;2022-12-07T15:40:07;4.78;;;1.05;;
58260;SDS011;44058;52.898;6.502;2022-12-07T15:42:33;3.03;;;0.80;;
58260;SDS011;44058;52.898;6.502;2022-12-07T15:44:59;5.90;;;0.90;;
58260;SDS011;44058;52.898;6.502;2022-12-07T15:49:54;3.38;;;0.98;;
58260;SDS011;44058;52.898;6.502;2022-12-07T15:52:21;3.50;;;1.27;;
58260;SDS011;44058;52.898;6.502;2022-12-07T15:54:47;6.95;;;3.25;;
58260;SDS011;44058;52.898;6.502;2022-12-07T15:57:13;5.90;;;2.42;;
58260;SDS011;44058;52.898;6.502;2022-12-07T15:59:39;4.75;;;2.13;;
58260;SDS011;44058;52.898;6.502;2022-12-07T16:02:06;5.05;;;1.92;;
58260;SDS011;44058;52.898;6.502;2022-12-07T16:04:32;4.18;;;1.33;;
58260;SDS011;44058;52.898;6.502;2022-12-07T16:06:58;4.13;;;1.30;;
58260;SDS011;44058;52.898;6.502;2022-12-07T16:09:24;2.15;;;0.88;;
58260;SDS011;44058;52.898;6.502;2022-12-07T16:11:51;1.60;;;0.60;;
58260;SDS011;44058;52.898;6.502;2022-12-07T16:14:17;1.45;;;0.73;;
58260;SDS011;44058;52.898;6.502;2022-12-07T16:16:43;4.03;;;0.57;;
58260;SDS011;44058;52.898;6.502;2022-12-07T16:19:10;1.42;;;0.50;;
58260;SDS011;44058;52.898;6.502;2022-12-07T16:21:36;2.90;;;0.57;;
58260;SDS011;44058;52.898;6.502;2022-12-07T16:24:02;4.97;;;0.70;;
58260;SDS011;44058;52.898;6.502;2022-12-07T16:26:29;2.13;;;0.70;;
58260;SDS011;44058;52.898;6.502;2022-12-07T16:28:55;1.52;;;0.50;;
58260;SDS011;44058;52.898;6.502;2022-12-07T16:31:22;3.75;;;0.63;;
58260;SDS011;44058;52.898;6.502;2022-12-07T16:33:48;2.22;;;0.90;;
58260;SDS011;44058;52.898;6.502;2022-12-07T16:36:15;4.50;;;0.70;;
58260;SDS011;44058;52.898;6.502;2022-12-07T16:38:42;2.97;;;0.50;;
58260;SDS011;44058;52.898;6.502;2022-12-07T16:41:08;1.65;;;0.57;;
58260;SDS011;44058;52.898;6.502;2022-12-07T16:43:35;1.95;;;0.45;;
58260;SDS011;44058;52.898;6.502;2022-12-07T16:46:02;1.35;;;0.50;;
58260;SDS011;44058;52.898;6.502;2022-12-07T16:48:28;3.50;;;0.63;;
58260;SDS011;44058;52.898;6.502;2022-12-07T16:50:56;2.70;;;0.88;;
58260;SDS011;44058;52.898;6.502;2022-12-07T16:53:23;1.45;;;0.60;;
58260;SDS011;44058;52.898;6.502;2022-12-07T16:55:49;4.28;;;1.80;;
58260;SDS011;44058;52.898;6.502;2022-12-07T16:58:16;3.42;;;1.80;;
58260;SDS011;44058;52.898;6.502;2022-12-07T17:00:43;5.03;;;2.05;;
58260;SDS011;44058;52.898;6.502;2022-12-07T17:03:09;2.38;;;1.52;;
58260;SDS011;44058;52.898;6.502;2022-12-07T17:05:37;2.78;;;1.33;;
58260;SDS011;44058;52.898;6.502;2022-12-07T17:08:03;2.60;;;1.40;;
58260;SDS011;44058;52.898;6.502;2022-12-07T17:10:29;4.28;;;1.95;;
58260;SDS011;44058;52.898;6.502;2022-12-07T17:12:55;4.80;;;2.25;;
58260;SDS011;44058;52.898;6.502;2022-12-07T17:15:21;4.95;;;2.40;;
58260;SDS011;44058;52.898;6.502;2022-12-07T17:17:52;5.85;;;2.40;;
58260;SDS011;44058;52.898;6.502;2022-12-07T17:20:18;7.80;;;4.10;;
58260;SDS011;44058;52.898;6.502;2022-12-07T17:22:45;5.57;;;3.50;;
58260;SDS011;44058;52.898;6.502;2022-12-07T17:25:11;7.88;;;3.80;;
58260;SDS011;44058;52.898;6.502;2022-12-07T17:27:38;9.60;;;3.88;;
58260;SDS011;44058;52.898;6.502;2022-12-07T17:30:04;5.30;;;2.97;;
58260;SDS011;44058;52.898;6.502;2022-12-07T17:32:31;5.82;;;2.70;;
58260;SDS011;44058;52.898;6.502;2022-12-07T17:34:57;6.43;;;2.70;;
58260;SDS011;44058;52.898;6.502;2022-12-07T17:37:24;7.82;;;3.60;;
58260;SDS011;44058;52.898;6.502;2022-12-07T17:39:51;7.40;;;3.80;;
58260;SDS011;44058;52.898;6.502;2022-12-07T17:42:18;7.43;;;2.97;;
58260;SDS011;44058;52.898;6.502;2022-12-07T17:45:08;5.55;;;2.33;;
58260;SDS011;44058;52.898;6.502;2022-12-07T17:47:38;5.50;;;2.85;;
58260;SDS011;44058;52.898;6.502;2022-12-07T17:50:05;4.10;;;2.38;;
58260;SDS011;44058;52.898;6.502;2022-12-07T17:52:32;6.57;;;3.08;;
58260;SDS011;44058;52.898;6.502;2022-12-07T17:55:17;6.68;;;3.30;;
58260;SDS011;44058;52.898;6.502;2022-12-07T17:57:43;4.65;;;2.58;;
58260;SDS011;44058;52.898;6.502;2022-12-07T18:00:09;6.72;;;3.22;;
58260;SDS011;44058;52.898;6.502;2022-12-07T18:02:36;7.75;;;2.90;;
58260;SDS011;44058;52.898;6.502;2022-12-07T18:05:02;4.55;;;2.55;;
58260;SDS011;44058;52.898;6.502;2022-12-07T18:07:29;5.97;;;3.08;;
58260;SDS011;44058;52.898;6.502;2022-12-07T18:09:55;5.75;;;3.30;;
58260;SDS011;44058;52.898;6.502;2022-12-07T18:12:21;8.85;;;3.97;;
58260;SDS011;44058;52.898;6.502;2022-12-07T18:14:48;4.25;;;2.55;;
58260;SDS011;44058;52.898;6.502;2022-12-07T18:17:15;3.78;;;1.77;;
58260;SDS011;44058;52.898;6.502;2022-12-07T18:19:42;2.92;;;1.75;;
58260;SDS011;44058;52.898;6.502;2022-12-07T18:22:08;3.03;;;1.70;;
58260;SDS011;44058;52.898;6.502;2022-12-07T18:24:35;2.72;;;1.70;;
58260;SDS011;44058;52.898;6.502;2022-12-07T18:27:02;4.88;;;3.38;;
58260;SDS011;44058;52.898;6.502;2022-12-07T18:29:29;4.95;;;3.08;;
58260;SDS011;44058;52.898;6.502;2022-12-07T18:31:56;5.40;;;3.95;;
58260;SDS011;44058;52.898;6.502;2022-12-07T18:34:22;6.22;;;3.88;;
58260;SDS011;44058;52.898;6.502;2022-12-07T18:36:48;4.75;;;3.00;;
58260;SDS011;44058;52.898;6.502;2022-12-07T18:39:16;3.20;;;1.90;;
58260;SDS011;44058;52.898;6.502;2022-12-07T18:41:42;4.00;;;2.50;;
58260;SDS011;44058;52.898;6.502;2022-12-07T18:44:08;3.15;;;1.80;;
58260;SDS011;44058;52.898;6.502;2022-12-07T18:46:35;2.95;;;1.70;;
58260;SDS011;44058;52.898;6.502;2022-12-07T18:49:02;6.30;;;2.63;;
58260;SDS011;44058;52.898;6.502;2022-12-07T18:51:28;6.03;;;2.50;;
58260;SDS011;44058;52.898;6.502;2022-12-07T18:53:54;3.45;;;2.28;;
58260;SDS011;44058;52.898;6.502;2022-12-07T18:56:21;4.38;;;2.45;;
58260;SDS011;44058;52.898;6.502;2022-12-07T18:58:50;4.90;;;2.10;;
58260;SDS011;44058;52.898;6.502;2022-12-07T19:01:36;3.85;;;2.30;;
58260;SDS011;44058;52.898;6.502;2022-12-07T19:04:02;3.78;;;2.72;;
58260;SDS011;44058;52.898;6.502;2022-12-07T19:06:28;4.15;;;3.40;;
58260;SDS011;44058;52.898;6.502;2022-12-07T19:08:55;5.57;;;2.95;;
58260;SDS011;44058;52.898;6.502;2022-12-07T19:11:25;3.80;;;2.70;;
58260;SDS011;44058;52.898;6.502;2022-12-07T19:14:11;3.67;;;1.90;;
58260;SDS011;44058;52.898;6.502;2022-12-07T19:16:37;4.55;;;3.03;;
58260;SDS011;44058;52.898;6.502;2022-12-07T19:19:03;4.15;;;2.70;;
58260;SDS011;44058;52.898;6.502;2022-12-07T19:21:29;8.93;;;3.60;;
58260;SDS011;44058;52.898;6.502;2022-12-07T19:23:56;6.20;;;3.80;;
58260;SDS011;44058;52.898;6.502;2022-12-07T19:26:22;6.70;;;4.00;;
58260;SDS011;44058;52.898;6.502;2022-12-07T19:28:54;7.00;;;3.80;;
58260;SDS011;44058;52.898;6.502;2022-12-07T19:31:21;9.05;;;3.40;;
58260;SDS011;44058;52.898;6.502;2022-12-07T19:33:47;9.77;;;3.65;;
58260;SDS011;44058;52.898;6.502;2022-12-07T19:36:14;6.00;;;3.03;;
58260;SDS011;44058;52.898;6.502;2022-12-07T19:38:40;6.53;;;3.53;;
58260;SDS011;44058;52.898;6.502;2022-12-07T19:41:07;4.18;;;2.70;;
58260;SDS011;44058;52.898;6.502;2022-12-07T19:44:20;4.55;;;1.95;;
58260;SDS011;44058;52.898;6.502;2022-12-07T19:46:49;4.50;;;1.90;;
58260;SDS011;44058;52.898;6.502;2022-12-07T19:49:16;3.72;;;1.90;;
58260;SDS011;44058;52.898;6.502;2022-12-07T19:51:43;2.85;;;1.80;;
58260;SDS011;44058;52.898;6.502;2022-12-07T19:54:11;4.22;;;1.55;;
58260;SDS011;44058;52.898;6.502;2022-12-07T19:56:39;3.35;;;1.98;;
58260;SDS011;44058;52.898;6.502;2022-12-07T19:59:05;5.65;;;2.55;;
58260;SDS011;44058;52.898;6.502;2022-12-07T20:01:32;4.97;;;2.92;;
58260;SDS011;44058;52.898;6.502;2022-12-07T20:03:58;3.67;;;2.20;;
58260;SDS011;44058;52.898;6.502;2022-12-07T20:06:25;4.32;;;2.03;;
58260;SDS011;44058;52.898;6.502;2022-12-07T20:08:52;4.55;;;2.17;;
58260;SDS011;44058;52.898;6.502;2022-12-07T20:11:18;2.95;;;2.25;;
58260;SDS011;44058;52.898;6.502;2022-12-07T20:14:05;4.80;;;2.30;;
58260;SDS011;44058;52.898;6.502;2022-12-07T20:16:31;3.17;;;2.10;;
58260;SDS011;44058;52.898;6.502;2022-12-07T20:18:58;4.03;;;2.05;;
58260;SDS011;44058;52.898;6.502;2022-12-07T20:21:24;5.00;;;2.47;;
58260;SDS011;44058;52.898;6.502;2022-12-07T20:23:50;2.15;;;1.90;;
58260;SDS011;44058;52.898;6.502;2022-12-07T20:26:17;3.97;;;1.83;;
58260;SDS011;44058;52.898;6.502;2022-12-07T20:28:43;4.05;;;2.22;;
58260;SDS011;44058;52.898;6.502;2022-12-07T20:31:11;5.35;;;2.55;;
58260;SDS011;44058;52.898;6.502;2022-12-07T20:33:39;4.00;;;1.67;;
58260;SDS011;44058;52.898;6.502;2022-12-07T20:36:23;4.47;;;2.08;;
58260;SDS011;44058;52.898;6.502;2022-12-07T20:38:49;4.88;;;2.13;;
58260;SDS011;44058;52.898;6.502;2022-12-07T20:41:16;3.65;;;1.90;;
58260;SDS011;44058;52.898;6.502;2022-12-07T20:44:01;3.88;;;2.10;;
58260;SDS011;44058;52.898;6.502;2022-12-07T20:46:27;4.37;;;2.10;;
58260;SDS011;44058;52.898;6.502;2022-12-07T20:48:53;4.50;;;1.85;;
58260;SDS011;44058;52.898;6.502;2022-12-07T20:51:22;4.43;;;1.70;;
58260;SDS011;44058;52.898;6.502;2022-12-07T20:53:49;4.80;;;1.60;;
58260;SDS011;44058;52.898;6.502;2022-12-07T20:56:29;3.03;;;1.60;;
58260;SDS011;44058;52.898;6.502;2022-12-07T20:58:56;2.72;;;1.45;;
58260;SDS011;44058;52.898;6.502;2022-12-07T21:01:22;5.27;;;1.50;;
58260;SDS011;44058;52.898;6.502;2022-12-07T21:03:54;3.43;;;1.63;;
58260;SDS011;44058;52.898;6.502;2022-12-07T21:06:21;4.95;;;1.90;;
58260;SDS011;44058;52.898;6.502;2022-12-07T21:08:49;3.63;;;1.90;;
58260;SDS011;44058;52.898;6.502;2022-12-07T21:11:16;4.07;;;2.25;;
58260;SDS011;44058;52.898;6.502;2022-12-07T21:13:43;3.70;;;1.90;;
58260;SDS011;44058;52.898;6.502;2022-12-07T21:16:10;6.45;;;2.15;;
58260;SDS011;44058;52.898;6.502;2022-12-07T21:18:37;4.63;;;1.85;;
58260;SDS011;44058;52.898;6.502;2022-12-07T21:21:05;5.87;;;2.40;;
58260;SDS011;44058;52.898;6.502;2022-12-07T21:23:31;5.30;;;1.90;;
58260;SDS011;44058;52.898;6.502;2022-12-07T21:25:58;4.93;;;1.70;;
58260;SDS011;44058;52.898;6.502;2022-12-07T21:28:24;4.33;;;1.70;;
58260;SDS011;44058;52.898;6.502;2022-12-07T21:30:54;6.50;;;2.08;;
58260;SDS011;44058;52.898;6.502;2022-12-07T21:33:20;4.40;;;2.03;;
58260;SDS011;44058;52.898;6.502;2022-12-07T21:35:52;4.83;;;2.17;;
58260;SDS011;44058;52.898;6.502;2022-12-07T21:38:18;3.57;;;1.80;;
58260;SDS011;44058;52.898;6.502;2022-12-07T21:40:45;6.88;;;1.70;;
58260;SDS011;44058;52.898;6.502;2022-12-07T21:43:11;6.03;;;2.00;;
58260;SDS011;44058;52.898;6.502;2022-12-07T21:45:37;5.13;;;1.35;;
58260;SDS011;44058;52.898;6.502;2022-12-07T21:48:04;4.22;;;1.65;;
58260;SDS011;44058;52.898;6.502;2022-12-07T21:50:30;4.77;;;1.40;;
58260;SDS011;44058;52.898;6.502;2022-12-07T21:53:00;3.42;;;1.50;;
58260;SDS011;44058;52.898;6.502;2022-12-07T21:55:26;5.25;;;1.40;;
58260;SDS011;44058;52.898;6.502;2022-12-07T21:57:52;3.97;;;1.50;;
58260;SDS011;44058;52.898;6.502;2022-12-07T22:00:19;5.00;;;1.85;;
58260;SDS011;44058;52.898;6.502;2022-12-07T22:02:49;2.97;;;0.87;;
58260;SDS011;44058;52.898;6.502;2022-12-07T22:05:15;3.72;;;1.02;;
58260;SDS011;44058;52.898;6.502;2022-12-07T22:07:41;7.47;;;1.00;;
58260;SDS011;44058;52.898;6.502;2022-12-07T22:10:07;4.07;;;1.15;;
58260;SDS011;44058;52.898;6.502;2022-12-07T22:12:34;4.20;;;0.90;;
58260;SDS011;44058;52.898;6.502;2022-12-07T22:15:00;2.40;;;1.02;;
58260;SDS011;44058;52.898;6.502;2022-12-07T22:17:41;2.05;;;0.80;;
58260;SDS011;44058;52.898;6.502;2022-12-07T22:20:09;3.00;;;0.82;;
58260;SDS011;44058;52.898;6.502;2022-12-07T22:22:36;5.22;;;0.85;;
58260;SDS011;44058;52.898;6.502;2022-12-07T22:25:02;2.83;;;0.63;;
58260;SDS011;44058;52.898;6.502;2022-12-07T22:27:28;2.90;;;1.00;;
58260;SDS011;44058;52.898;6.502;2022-12-07T22:29:54;4.07;;;0.70;;
58260;SDS011;44058;52.898;6.502;2022-12-07T22:32:25;3.63;;;0.80;;
58260;SDS011;44058;52.898;6.502;2022-12-07T22:34:52;2.38;;;0.73;;
58260;SDS011;44058;52.898;6.502;2022-12-07T22:37:19;2.63;;;0.70;;
58260;SDS011;44058;52.898;6.502;2022-12-07T22:39:45;3.83;;;0.95;;
58260;SDS011;44058;52.898;6.502;2022-12-07T22:42:11;2.50;;;0.70;;
58260;SDS011;44058;52.898;6.502;2022-12-07T22:44:38;3.73;;;0.80;;
58260;SDS011;44058;52.898;6.502;2022-12-07T22:47:07;4.87;;;0.67;;
58260;SDS011;44058;52.898;6.502;2022-12-07T22:49:33;5.25;;;1.50;;
58260;SDS011;44058;52.898;6.502;2022-12-07T22:51:59;2.70;;;0.63;;
58260;SDS011;44058;52.898;6.502;2022-12-07T22:54:25;2.88;;;0.68;;
58260;SDS011;44058;52.898;6.502;2022-12-07T22:56:52;1.73;;;0.70;;
58260;SDS011;44058;52.898;6.502;2022-12-07T22:59:18;3.00;;;0.40;;
58260;SDS011;44058;52.898;6.502;2022-12-07T23:01:44;1.87;;;0.60;;
58260;SDS011;44058;52.898;6.502;2022-12-07T23:04:10;3.27;;;0.73;;
58260;SDS011;44058;52.898;6.502;2022-12-07T23:06:37;3.50;;;0.53;;
58260;SDS011;44058;52.898;6.502;2022-12-07T23:09:07;2.53;;;0.50;;
58260;SDS011;44058;52.898;6.502;2022-12-07T23:11:34;2.58;;;0.57;;
58260;SDS011;44058;52.898;6.502;2022-12-07T23:14:22;4.73;;;0.60;;
58260;SDS011;44058;52.898;6.502;2022-12-07T23:16:48;3.60;;;0.60;;
58260;SDS011;44058;52.898;6.502;2022-12-07T23:19:15;3.50;;;0.60;;
58260;SDS011;44058;52.898;6.502;2022-12-07T23:21:41;3.75;;;0.75;;
58260;SDS011;44058;52.898;6.502;2022-12-07T23:24:08;3.60;;;0.70;;
58260;SDS011;44058;52.898;6.502;2022-12-07T23:26:34;2.33;;;0.43;;
58260;SDS011;44058;52.898;6.502;2022-12-07T23:29:00;4.20;;;0.60;;
58260;SDS011;44058;52.898;6.502;2022-12-07T23:31:28;5.10;;;0.90;;
58260;SDS011;44058;52.898;6.502;2022-12-07T23:33:54;3.30;;;0.70;;
58260;SDS011;44058;52.898;6.502;2022-12-07T23:36:22;2.28;;;0.82;;
58260;SDS011;44058;52.898;6.502;2022-12-07T23:38:49;3.30;;;0.70;;
58260;SDS011;44058;52.898;6.502;2022-12-07T23:41:17;1.85;;;0.80;;
58260;SDS011;44058;52.898;6.502;2022-12-07T23:43:44;2.57;;;0.43;;
58260;SDS011;44058;52.898;6.502;2022-12-07T23:46:12;3.13;;;0.80;;
58260;SDS011;44058;52.898;6.502;2022-12-07T23:48:39;2.90;;;1.13;;
58260;SDS011;44058;52.898;6.502;2022-12-07T23:51:06;3.90;;;0.73;;
58260;SDS011;44058;52.898;6.502;2022-12-07T23:53:34;4.77;;;1.10;;
58260;SDS011;44058;52.898;6.502;2022-12-07T23:56:03;3.77;;;0.80;;
58260;SDS011;44058;52.898;6.502;2022-12-07T23:58:33;2.67;;;0.90;;
